Time;durP1;ratioP1;P1;durP2;ratioP2;P2;SDS_P1;SDS_P2;PMS_P1;PMS_P2;Temp;Humidity;BMP_temperature;BMP_pressure;BME280_temperature;BME280_humidity;BME280_pressure;Samples;Min_cycle;Max_cycle;Signal;HPM_P1;HPM_P2
2022/11/16 00:02:02;;;;;;;0.40;0.40;;;15.80;97.70;;;;;;5071723;28;20254;-64
2022/11/16 00:04:50;;;;;;;0.40;0.40;;;15.70;98.00;;;;;;5072574;28;20220;-64
2022/11/16 00:07:40;;;;;;;0.40;0.40;;;15.70;97.90;;;;;;5071836;28;20304;-64
2022/11/16 00:10:28;;;;;;;0.40;0.40;;;15.70;98.00;;;;;;5071127;28;20547;-64
2022/11/16 00:13:16;;;;;;;0.50;0.50;;;15.70;97.90;;;;;;5071284;28;20806;-64
2022/11/16 00:16:05;;;;;;;0.40;0.40;;;15.70;98.00;;;;;;5074138;28;20196;-64
2022/11/16 00:18:56;;;;;;;0.40;0.40;;;15.70;97.90;;;;;;5087644;28;20238;-64
2022/11/16 00:21:44;;;;;;;0.40;0.40;;;15.70;98.00;;;;;;5089650;28;20220;-64
2022/11/16 00:24:34;;;;;;;1.02;1.02;;;15.70;97.90;;;;;;5083600;28;20732;-64
2022/11/16 00:27:22;;;;;;;0.40;0.40;;;15.70;97.90;;;;;;5074950;28;20274;-64
2022/11/16 00:30:11;;;;;;;0.40;0.40;;;15.70;97.90;;;;;;5074356;28;20299;-64
2022/11/16 00:33:00;;;;;;;0.40;0.40;;;15.70;97.90;;;;;;5074697;28;20228;-64
2022/11/16 00:35:48;;;;;;;0.40;0.40;;;15.70;98.00;;;;;;5074714;28;20754;-64
2022/11/16 00:38:36;;;;;;;0.68;0.68;;;15.70;97.90;;;;;;5075479;28;20211;-64
2022/11/16 00:41:25;;;;;;;0.40;0.40;;;15.70;98.00;;;;;;5073910;28;20260;-64
2022/11/16 00:44:14;;;;;;;0.40;0.40;;;15.70;97.90;;;;;;5074515;28;20283;-64
2022/11/16 00:47:02;;;;;;;0.40;0.40;;;15.70;97.90;;;;;;5074889;28;20299;-64
2022/11/16 00:49:50;;;;;;;0.93;0.93;;;15.60;97.80;;;;;;5075034;28;20346;-64
2022/11/16 00:52:38;;;;;;;0.40;0.40;;;15.70;98.00;;;;;;5075288;28;20197;-64
2022/11/16 00:55:26;;;;;;;0.40;0.40;;;15.60;97.90;;;;;;5074049;28;20290;-64
2022/11/16 00:58:16;;;;;;;0.50;0.50;;;15.70;97.90;;;;;;5075255;28;20277;-64
2022/11/16 01:01:05;;;;;;;0.40;0.40;;;15.70;97.80;;;;;;5073594;28;20256;-64
2022/11/16 01:03:54;;;;;;;0.40;0.40;;;15.70;97.90;;;;;;5074974;28;20204;-64
2022/11/16 01:06:42;;;;;;;0.40;0.40;;;15.70;97.80;;;;;;5074917;28;20270;-63
2022/11/16 01:09:30;;;;;;;0.40;0.40;;;15.70;97.60;;;;;;5073325;28;20279;-64
2022/11/16 01:12:18;;;;;;;0.40;0.40;;;15.70;97.90;;;;;;5074035;28;20273;-64
2022/11/16 01:15:09;;;;;;;0.40;0.40;;;15.70;97.80;;;;;;5073820;28;20277;-64
2022/11/16 01:17:57;;;;;;;0.40;0.40;;;15.70;97.70;;;;;;5074848;28;20207;-65
2022/11/16 01:20:45;;;;;;;0.40;0.40;;;15.70;97.70;;;;;;5079611;28;20243;-64
2022/11/16 01:23:33;;;;;;;0.40;0.40;;;15.80;97.70;;;;;;5076910;28;20200;-64
2022/11/16 01:26:21;;;;;;;0.40;0.40;;;15.70;97.80;;;;;;5078888;28;20764;-64
2022/11/16 01:29:09;;;;;;;0.40;0.40;;;15.70;97.60;;;;;;5076944;28;20256;-64
2022/11/16 01:31:59;;;;;;;0.60;0.60;;;15.80;97.70;;;;;;5078034;28;20275;-64
2022/11/16 01:34:47;;;;;;;0.40;0.40;;;15.70;97.70;;;;;;5078264;28;20284;-63
2022/11/16 01:37:35;;;;;;;0.40;0.40;;;15.70;97.70;;;;;;5078669;28;20285;-64
2022/11/16 01:40:23;;;;;;;0.40;0.40;;;15.80;97.60;;;;;;5078271;28;20232;-64
2022/11/16 01:43:15;;;;;;;0.40;0.40;;;15.70;97.70;;;;;;5077647;28;20254;-64
2022/11/16 01:46:03;;;;;;;0.40;0.40;;;15.80;97.70;;;;;;5080953;28;20281;-64
2022/11/16 01:48:57;;;;;;;0.40;0.40;;;15.70;97.60;;;;;;5077606;28;20327;-64
2022/11/16 01:51:49;;;;;;;2.97;2.83;;;15.70;97.60;;;;;;5073183;28;20774;-64
2022/11/16 01:54:45;;;;;;;0.40;0.40;;;15.70;97.70;;;;;;5077958;28;20204;-64
2022/11/16 01:57:37;;;;;;;0.40;0.40;;;15.70;97.70;;;;;;5079540;28;20681;-63
2022/11/16 02:00:26;;;;;;;0.57;0.57;;;15.70;97.70;;;;;;5074053;28;20304;-64
2022/11/16 02:03:17;;;;;;;0.40;0.40;;;15.70;97.60;;;;;;5074193;28;20209;-64
2022/11/16 02:06:30;;;;;;;0.40;0.40;;;15.60;97.50;;;;;;5073880;28;20274;-64
2022/11/16 02:13:01;;;;;;;0.40;0.40;;;15.60;97.60;;;;;;5073967;28;20613;-64
2022/11/16 02:15:55;;;;;;;0.98;0.98;;;15.60;97.60;;;;;;5073490;28;20327;-64
2022/11/16 02:18:52;;;;;;;0.40;0.40;;;15.60;97.60;;;;;;5073750;28;20678;-64
2022/11/16 02:21:46;;;;;;;0.40;0.40;;;15.60;97.60;;;;;;5067264;28;20272;-64
2022/11/16 02:24:43;;;;;;;0.40;0.40;;;15.60;97.50;;;;;;5072907;28;20351;-64
2022/11/16 02:27:55;;;;;;;0.60;0.60;;;15.60;97.80;;;;;;5072353;28;20326;-64
2022/11/16 02:30:49;;;;;;;0.40;0.40;;;15.60;97.50;;;;;;5072702;28;20221;-64
2022/11/16 02:33:40;;;;;;;0.40;0.40;;;15.60;97.40;;;;;;5072837;28;20275;-64
2022/11/16 02:36:28;;;;;;;0.40;0.40;;;15.60;97.60;;;;;;5072829;28;20201;-65
2022/11/16 02:39:20;;;;;;;0.40;0.40;;;15.50;97.50;;;;;;5071846;28;20261;-63
2022/11/16 02:42:12;;;;;;;0.50;0.50;;;15.50;97.40;;;;;;5080164;28;20204;-64
2022/11/16 02:45:02;;;;;;;0.40;0.40;;;15.50;97.40;;;;;;5092500;28;20198;-64
2022/11/16 02:47:54;;;;;;;0.40;0.40;;;15.60;97.60;;;;;;5092877;28;20769;-64
2022/11/16 02:50:43;;;;;;;0.40;0.40;;;15.50;97.40;;;;;;5092031;28;20223;-64
2022/11/16 02:53:37;;;;;;;0.40;0.40;;;15.60;97.40;;;;;;5092809;28;20206;-64
2022/11/16 02:56:26;;;;;;;0.40;0.40;;;15.60;97.50;;;;;;5092290;28;20204;-64
2022/11/16 02:59:15;;;;;;;0.40;0.40;;;15.50;97.60;;;;;;5092829;28;20753;-64
2022/11/16 03:02:17;;;;;;;0.50;0.50;;;15.50;97.40;;;;;;5092606;28;20196;-64
2022/11/16 03:05:11;;;;;;;0.50;0.50;;;15.50;97.30;;;;;;5092285;28;20746;-64
2022/11/16 03:08:07;;;;;;;0.40;0.40;;;15.60;97.40;;;;;;5092496;28;20275;-64
2022/11/16 03:14:16;;;;;;;0.40;0.40;;;15.60;97.40;;;;;;5065174;28;20745;-64
2022/11/16 03:17:07;;;;;;;0.40;0.40;;;15.60;97.40;;;;;;5092581;28;20325;-64
2022/11/16 03:20:03;;;;;;;0.82;0.82;;;15.60;97.20;;;;;;5091362;28;20226;-64
2022/11/16 03:22:54;;;;;;;0.40;0.40;;;15.60;97.30;;;;;;5091323;28;20774;-64
2022/11/16 03:25:48;;;;;;;0.40;0.40;;;15.60;97.30;;;;;;5092318;28;20199;-64
2022/11/16 03:28:45;;;;;;;0.40;0.40;;;15.70;97.30;;;;;;5092394;28;20211;-64
2022/11/16 03:31:38;;;;;;;4.32;4.13;;;15.60;97.40;;;;;;5091114;28;20308;-64
2022/11/16 03:34:31;;;;;;;0.50;0.50;;;15.60;97.10;;;;;;5092254;28;20199;-64
2022/11/16 03:37:21;;;;;;;0.40;0.40;;;15.60;97.20;;;;;;5092137;28;20702;-64
2022/11/16 03:40:12;;;;;;;0.50;0.50;;;15.50;97.10;;;;;;5091070;28;20223;-64
2022/11/16 03:43:02;;;;;;;0.50;0.50;;;15.60;97.20;;;;;;5091451;28;20749;-64
2022/11/16 03:45:50;;;;;;;0.40;0.40;;;15.50;97.20;;;;;;5091866;28;20593;-64
2022/11/16 03:48:40;;;;;;;0.40;0.40;;;15.60;97.20;;;;;;5091433;28;20688;-64
2022/11/16 03:51:28;;;;;;;0.40;0.40;;;15.50;97.20;;;;;;5091117;28;20216;-64
2022/11/16 03:54:16;;;;;;;0.40;0.40;;;15.60;97.20;;;;;;5095123;28;20676;-64
2022/11/16 03:57:06;;;;;;;0.40;0.40;;;15.50;97.00;;;;;;5095923;28;20699;-64
2022/11/16 03:59:54;;;;;;;0.40;0.40;;;15.50;97.20;;;;;;5094995;28;20223;-64
2022/11/16 04:02:42;;;;;;;0.40;0.40;;;15.50;97.00;;;;;;5095459;28;20287;-64
2022/11/16 04:24:20;;;;;;;0.40;0.40;;;15.50;97.30;;;;;;5032673;28;20202;-64
2022/11/16 04:30:18;;;;;;;0.40;0.40;;;15.40;97.00;;;;;;5108415;28;20749;-64
2022/11/16 04:39:17;;;;;;;0.40;0.40;;;15.50;97.10;;;;;;5094777;28;20276;-65
2022/11/16 04:42:14;;;;;;;0.40;0.40;;;15.50;97.30;;;;;;5095299;28;20210;-65
2022/11/16 04:48:10;;;;;;;0.40;0.40;;;15.60;97.20;;;;;;5094203;28;20226;-65
2022/11/16 04:50:58;;;;;;;0.40;0.40;;;15.50;97.10;;;;;;5095314;28;20223;-65
2022/11/16 04:53:46;;;;;;;0.40;0.40;;;15.50;97.10;;;;;;5095031;28;20200;-65
2022/11/16 04:56:34;;;;;;;0.40;0.40;;;15.50;97.20;;;;;;5094237;28;20207;-66
2022/11/16 04:59:22;;;;;;;0.40;0.40;;;15.50;97.00;;;;;;5094480;28;20199;-65
2022/11/16 05:02:10;;;;;;;0.40;0.40;;;15.50;97.00;;;;;;5094609;28;20279;-66
2022/11/16 05:05:00;;;;;;;0.40;0.40;;;15.50;97.10;;;;;;5093993;28;20228;-66
2022/11/16 05:07:48;;;;;;;0.40;0.40;;;15.50;97.00;;;;;;5094536;28;20684;-64
2022/11/16 05:10:36;;;;;;;0.40;0.40;;;15.50;96.90;;;;;;5093731;28;20712;-64
2022/11/16 05:13:24;;;;;;;0.60;0.60;;;15.50;97.00;;;;;;5094076;28;20196;-64
2022/11/16 05:16:12;;;;;;;0.40;0.40;;;15.50;97.10;;;;;;5094049;28;20196;-65
2022/11/16 05:22:06;;;;;;;0.40;0.40;;;15.50;97.00;;;;;;5064370;28;20684;-66
2022/11/16 05:24:54;;;;;;;0.40;0.40;;;15.50;97.00;;;;;;5093753;28;20284;-65
2022/11/16 05:27:42;;;;;;;0.50;0.50;;;15.50;97.00;;;;;;5093726;28;20207;-65
2022/11/16 05:30:30;;;;;;;0.40;0.40;;;15.50;97.10;;;;;;5093233;28;20298;-64
2022/11/16 05:33:18;;;;;;;0.40;0.40;;;15.50;97.10;;;;;;5094078;28;20581;-65
2022/11/16 05:36:07;;;;;;;0.40;0.40;;;15.50;97.20;;;;;;5093487;28;20200;-65
2022/11/16 05:38:57;;;;;;;0.47;0.47;;;15.50;97.10;;;;;;5093939;28;20354;-65
2022/11/16 05:41:45;;;;;;;0.40;0.40;;;15.50;97.10;;;;;;5094354;28;20227;-64
2022/11/16 05:44:33;;;;;;;1.95;1.85;;;15.40;97.00;;;;;;5094632;28;20200;-64
2022/11/16 05:47:21;;;;;;;0.60;0.60;;;15.40;97.10;;;;;;5099166;28;20541;-65
2022/11/16 05:50:10;;;;;;;0.40;0.40;;;15.40;97.10;;;;;;5095696;28;20226;-64
2022/11/16 05:52:58;;;;;;;0.40;0.40;;;15.40;97.10;;;;;;5093910;28;20246;-64
2022/11/16 05:55:47;;;;;;;0.95;0.95;;;15.40;97.20;;;;;;5094939;28;20295;-66
2022/11/16 05:58:35;;;;;;;0.70;0.70;;;15.40;97.10;;;;;;5093710;28;20195;-64
2022/11/16 06:01:24;;;;;;;0.60;0.60;;;15.40;97.40;;;;;;5094804;28;20219;-64
2022/11/16 06:04:13;;;;;;;0.40;0.40;;;15.40;97.50;;;;;;5094008;28;20279;-65
2022/11/16 06:07:02;;;;;;;0.40;0.40;;;15.40;97.20;;;;;;5093892;28;20751;-65
2022/11/16 06:09:50;;;;;;;0.40;0.40;;;15.40;97.30;;;;;;5092110;28;20251;-65
2022/11/16 06:12:39;;;;;;;0.50;0.50;;;15.40;97.30;;;;;;5092446;28;20330;-65
2022/11/16 06:15:27;;;;;;;2.05;1.95;;;15.40;97.20;;;;;;5092888;28;20345;-65
2022/11/16 06:18:15;;;;;;;0.40;0.40;;;15.40;97.30;;;;;;5092894;28;20333;-66
2022/11/16 06:21:04;;;;;;;0.40;0.40;;;15.40;97.30;;;;;;5093048;28;20285;-66
2022/11/16 06:23:52;;;;;;;4.00;3.70;;;15.40;97.30;;;;;;5093302;28;20281;-65
2022/11/16 06:26:40;;;;;;;0.85;0.85;;;15.40;97.20;;;;;;5093693;28;20673;-64
2022/11/16 06:29:30;;;;;;;0.40;0.40;;;15.40;97.30;;;;;;5093384;28;20294;-65
2022/11/16 06:32:18;;;;;;;0.40;0.40;;;15.40;97.20;;;;;;5093201;28;20220;-65
2022/11/16 06:35:07;;;;;;;3.03;2.92;;;15.40;97.20;;;;;;5093603;28;20218;-65
2022/11/16 06:37:55;;;;;;;0.40;0.40;;;15.40;97.20;;;;;;5091992;28;20288;-65
2022/11/16 06:40:43;;;;;;;0.40;0.40;;;15.50;97.20;;;;;;5092916;28;20618;-64
2022/11/16 06:43:31;;;;;;;0.40;0.40;;;15.50;97.30;;;;;;5092980;28;20204;-65
2022/11/16 06:46:23;;;;;;;0.40;0.40;;;15.50;97.30;;;;;;5091758;28;20207;-65
2022/11/16 06:49:11;;;;;;;0.73;0.73;;;15.50;97.30;;;;;;5092700;28;20278;-65
2022/11/16 06:51:59;;;;;;;15.43;14.02;;;15.50;97.30;;;;;;5093064;28;20265;-65
2022/11/16 06:54:47;;;;;;;2.95;2.85;;;15.50;97.30;;;;;;5091726;28;20211;-66
2022/11/16 06:57:35;;;;;;;1.15;1.15;;;15.50;97.30;;;;;;5092027;28;20196;-64
2022/11/16 07:00:23;;;;;;;10.63;10.10;;;15.50;97.30;;;;;;5093323;28;20301;-64
2022/11/16 07:03:13;;;;;;;2.90;2.80;;;15.50;97.30;;;;;;5071736;28;20199;-64
2022/11/16 07:06:06;;;;;;;5.68;5.40;;;15.50;97.30;;;;;;5091508;28;20208;-64
2022/11/16 07:08:54;;;;;;;0.82;0.82;;;15.50;97.30;;;;;;5083199;28;20212;-64
2022/11/16 07:11:42;;;;;;;0.60;0.60;;;15.40;97.20;;;;;;5073726;28;20649;-63
2022/11/16 07:14:30;;;;;;;1.45;1.45;;;15.40;97.30;;;;;;5072795;28;20203;-66
2022/11/16 07:17:18;;;;;;;0.80;0.80;;;15.40;97.20;;;;;;5072116;28;20252;-66
2022/11/16 07:20:10;;;;;;;0.40;0.40;;;15.40;97.30;;;;;;5072738;28;20290;-65
2022/11/16 07:23:02;;;;;;;0.40;0.40;;;15.40;97.30;;;;;;5071963;28;20203;-66
2022/11/16 07:25:51;;;;;;;0.40;0.40;;;15.40;97.30;;;;;;5071184;28;20197;-66
2022/11/16 07:28:39;;;;;;;0.40;0.40;;;15.40;97.20;;;;;;5076612;28;20262;-66
2022/11/16 07:31:34;;;;;;;0.50;0.50;;;15.40;97.30;;;;;;5078422;28;20218;-64
2022/11/16 07:34:23;;;;;;;8.70;8.20;;;15.40;97.30;;;;;;5078225;28;20192;-64
2022/11/16 07:37:12;;;;;;;0.40;0.40;;;15.40;97.30;;;;;;5079606;28;20537;-63
2022/11/16 07:40:00;;;;;;;20.70;19.90;;;15.40;97.30;;;;;;5077438;28;20661;-64
2022/11/16 07:42:48;;;;;;;0.50;0.50;;;15.40;97.30;;;;;;5078332;28;20248;-64
2022/11/16 07:45:36;;;;;;;0.40;0.40;;;15.40;97.30;;;;;;5078247;28;20290;-64
2022/11/16 07:48:24;;;;;;;0.40;0.40;;;15.40;97.30;;;;;;5079066;28;20299;-64
2022/11/16 07:51:15;;;;;;;0.40;0.40;;;15.40;97.40;;;;;;5078108;28;20224;-64
2022/11/16 07:54:05;;;;;;;0.40;0.40;;;15.40;97.40;;;;;;5078532;28;20196;-64
2022/11/16 07:56:53;;;;;;;0.40;0.40;;;15.40;97.40;;;;;;5078483;28;20283;-64
2022/11/16 07:59:41;;;;;;;0.40;0.40;;;15.40;97.80;;;;;;5079139;28;20720;-64
2022/11/16 08:02:29;;;;;;;1.80;1.70;;;15.40;97.40;;;;;;5079161;28;20589;-64
2022/11/16 08:05:17;;;;;;;1.15;1.15;;;15.40;97.40;;;;;;5079090;28;20228;-64
2022/11/16 08:08:06;;;;;;;1.30;1.30;;;15.40;97.30;;;;;;5079413;28;20197;-63
2022/11/16 08:11:00;;;;;;;0.40;0.40;;;15.40;97.40;;;;;;5077426;28;20273;-64
2022/11/16 08:13:48;;;;;;;0.40;0.40;;;15.40;97.40;;;;;;5077275;28;20293;-65
2022/11/16 08:16:36;;;;;;;0.40;0.40;;;15.50;97.40;;;;;;5078973;28;20236;-64
2022/11/16 08:19:24;;;;;;;2.45;2.35;;;15.50;97.40;;;;;;5078705;28;20342;-65
2022/11/16 08:22:12;;;;;;;1.92;1.85;;;15.50;99.90;;;;;;5078085;28;20200;-64
2022/11/16 08:25:01;;;;;;;0.67;0.67;;;15.50;97.40;;;;;;5079285;28;20283;-64
2022/11/16 08:27:50;;;;;;;1.38;1.38;;;15.50;97.40;;;;;;5079100;28;20201;-64
2022/11/16 08:30:39;;;;;;;0.40;0.40;;;15.50;97.40;;;;;;5078955;28;20252;-63
2022/11/16 08:33:29;;;;;;;0.40;0.40;;;15.50;97.50;;;;;;5079274;28;20196;-64
2022/11/16 08:36:19;;;;;;;0.60;0.60;;;15.50;97.40;;;;;;5080543;28;20594;-64
2022/11/16 08:39:07;;;;;;;0.40;0.40;;;15.50;97.50;;;;;;5087785;28;20256;-65
2022/11/16 08:41:55;;;;;;;0.40;0.40;;;15.50;97.50;;;;;;5050890;28;20291;-66
2022/11/16 08:44:44;;;;;;;2.08;1.98;;;15.50;97.50;;;;;;5048772;28;20201;-65
2022/11/16 08:47:33;;;;;;;0.40;0.40;;;15.50;97.50;;;;;;5055197;28;20201;-64
2022/11/16 08:50:21;;;;;;;0.40;0.40;;;15.50;97.50;;;;;;5053345;28;20228;-65
2022/11/16 08:53:09;;;;;;;0.40;0.40;;;15.50;97.50;;;;;;5059445;28;20338;-64
2022/11/16 08:56:02;;;;;;;0.40;0.40;;;15.50;97.50;;;;;;5074338;28;20330;-66
2022/11/16 08:58:53;;;;;;;1.88;1.88;;;15.50;97.50;;;;;;5074436;28;20583;-65
2022/11/16 09:01:48;;;;;;;0.40;0.40;;;15.50;97.50;;;;;;5035046;28;20589;-65
2022/11/16 09:04:37;;;;;;;0.40;0.40;;;15.50;97.50;;;;;;5034652;28;20459;-64
2022/11/16 09:07:25;;;;;;;0.40;0.40;;;15.50;97.60;;;;;;5035352;28;20333;-64
2022/11/16 09:10:13;;;;;;;0.40;0.40;;;15.50;97.60;;;;;;5033827;28;20222;-64
2022/11/16 09:13:01;;;;;;;0.40;0.40;;;15.50;97.60;;;;;;5034374;28;20236;-65
2022/11/16 09:15:55;;;;;;;28.70;19.20;;;15.50;97.60;;;;;;5034932;28;20202;-64
2022/11/16 09:18:45;;;;;;;0.40;0.40;;;15.50;98.00;;;;;;5034337;28;20284;-64
2022/11/16 09:21:35;;;;;;;0.40;0.40;;;15.50;97.60;;;;;;5034489;28;20577;-64
2022/11/16 09:24:23;;;;;;;0.40;0.40;;;15.50;97.70;;;;;;5035437;28;20208;-65
2022/11/16 09:27:11;;;;;;;0.40;0.40;;;15.50;97.70;;;;;;5039330;28;20202;-68
2022/11/16 09:29:59;;;;;;;0.40;0.40;;;15.50;97.70;;;;;;5035979;28;20309;-65
2022/11/16 09:32:47;;;;;;;0.40;0.40;;;15.50;97.70;;;;;;5034690;28;20300;-64
2022/11/16 09:35:36;;;;;;;0.40;0.40;;;15.50;97.70;;;;;;5036817;28;20202;-64
2022/11/16 09:38:24;;;;;;;0.40;0.40;;;15.50;97.70;;;;;;5073987;28;20204;-66
2022/11/16 09:41:47;;;;;;;0.93;0.93;;;15.50;97.70;;;;;;5081898;28;20228;-64
2022/11/16 09:44:56;;;;;;;0.40;0.40;;;15.50;97.70;;;;;;5094478;28;20239;-65
2022/11/16 09:47:48;;;;;;;0.40;0.40;;;15.50;97.70;;;;;;5093893;28;20196;-64
2022/11/16 09:50:44;;;;;;;0.40;0.40;;;15.50;97.70;;;;;;5093616;28;20715;-65
2022/11/16 09:53:35;;;;;;;0.40;0.40;;;15.50;97.70;;;;;;5094418;28;20605;-65
2022/11/16 09:56:25;;;;;;;0.40;0.40;;;15.50;97.70;;;;;;5094292;28;20245;-64
2022/11/16 09:59:21;;;;;;;1.27;1.27;;;15.50;97.70;;;;;;5092969;28;20676;-65
2022/11/16 10:02:19;;;;;;;2.35;2.25;;;15.50;97.70;;;;;;5094414;28;20196;-66
2022/11/16 10:05:16;;;;;;;0.40;0.40;;;15.50;97.70;;;;;;5092965;28;20240;-65
2022/11/16 10:08:12;;;;;;;0.40;0.40;;;15.50;97.70;;;;;;5092675;28;20278;-65
2022/11/16 10:11:10;;;;;;;0.40;0.40;;;15.50;97.70;;;;;;5093274;28;20261;-64
2022/11/16 10:14:10;;;;;;;0.40;0.40;;;15.50;97.70;;;;;;5092488;28;20699;-65
2022/11/16 10:17:06;;;;;;;0.40;0.40;;;15.50;97.70;;;;;;5093719;28;20214;-65
2022/11/16 10:19:56;;;;;;;0.40;0.40;;;15.50;97.70;;;;;;5091689;28;20303;-66
2022/11/16 10:22:54;;;;;;;0.68;0.68;;;15.60;97.70;;;;;;5091230;28;20708;-65
2022/11/16 10:25:45;;;;;;;0.90;0.90;;;15.50;97.60;;;;;;5092500;28;20204;-64
2022/11/16 10:28:56;;;;;;;0.40;0.40;;;15.60;97.70;;;;;;5092394;28;20279;-65
2022/11/16 10:31:56;;;;;;;0.40;0.40;;;15.60;97.70;;;;;;5093061;28;20310;-65
2022/11/16 10:34:51;;;;;;;0.40;0.40;;;15.60;97.70;;;;;;5093344;28;20324;-66
2022/11/16 10:37:45;;;;;;;0.70;0.70;;;15.60;97.60;;;;;;5075811;28;20325;-66
2022/11/16 10:40:37;;;;;;;0.50;0.50;;;15.60;97.60;;;;;;5074034;28;20723;-64
2022/11/16 10:43:29;;;;;;;0.40;0.40;;;15.60;97.60;;;;;;5073045;28;20196;-64
2022/11/16 10:46:27;;;;;;;0.40;0.40;;;15.60;97.60;;;;;;5072546;28;20192;-65
2022/11/16 10:49:22;;;;;;;0.40;0.40;;;15.60;97.60;;;;;;5071297;28;20287;-66
2022/11/16 10:52:10;;;;;;;0.40;0.40;;;15.60;97.60;;;;;;5072095;28;20588;-64
2022/11/16 10:54:58;;;;;;;0.40;0.40;;;15.60;97.60;;;;;;5071842;28;20330;-64
2022/11/16 10:57:54;;;;;;;0.40;0.40;;;15.60;97.50;;;;;;5072489;28;20207;-64
2022/11/16 11:00:47;;;;;;;0.40;0.40;;;15.60;97.60;;;;;;5072439;28;20302;-64
2022/11/16 11:03:35;;;;;;;0.40;0.40;;;15.60;97.60;;;;;;5071958;28;20201;-64
2022/11/16 11:06:25;;;;;;;0.40;0.40;;;15.60;97.60;;;;;;5072101;28;20205;-64
2022/11/16 11:09:23;;;;;;;0.40;0.40;;;15.60;97.60;;;;;;5071532;28;20813;-65
2022/11/16 11:15:22;;;;;;;0.40;0.40;;;15.60;97.60;;;;;;5071877;28;20206;-64
2022/11/16 11:18:24;;;;;;;0.40;0.40;;;15.50;97.50;;;;;;5071900;28;20227;-64
2022/11/16 11:21:18;;;;;;;0.40;0.40;;;15.50;97.50;;;;;;5071135;28;20219;-64
2022/11/16 11:24:16;;;;;;;0.40;0.40;;;15.50;97.50;;;;;;5071452;28;20715;-64
2022/11/16 11:27:28;;;;;;;0.40;0.40;;;15.50;97.50;;;;;;5071602;28;20192;-64
2022/11/16 11:30:19;;;;;;;1.23;1.13;;;15.50;97.50;;;;;;5072132;28;20321;-64
2022/11/16 11:33:11;;;;;;;0.40;0.40;;;15.60;97.60;;;;;;5071490;28;20227;-64
2022/11/16 11:36:05;;;;;;;0.40;0.40;;;15.60;97.60;;;;;;5071415;28;20196;-64
2022/11/16 11:38:58;;;;;;;0.40;0.40;;;15.60;97.60;;;;;;5071813;28;20197;-64
2022/11/16 11:42:01;;;;;;;0.40;0.40;;;15.60;97.50;;;;;;5066829;28;20216;-64
2022/11/16 11:44:56;;;;;;;0.40;0.40;;;15.60;97.40;;;;;;5072440;28;20197;-63
2022/11/16 11:47:51;;;;;;;0.40;0.40;;;15.70;97.40;;;;;;5072988;28;20699;-63
2022/11/16 11:50:52;;;;;;;0.40;0.40;;;15.70;97.30;;;;;;5072550;28;20332;-64
2022/11/16 11:53:51;;;;;;;0.40;0.40;;;15.80;97.30;;;;;;5073881;28;20205;-64
2022/11/16 11:56:39;;;;;;;0.40;0.40;;;15.80;97.30;;;;;;5072777;28;20679;-63
2022/11/16 11:59:27;;;;;;;0.40;0.40;;;15.80;97.30;;;;;;5072642;28;20616;-64
2022/11/16 12:02:33;;;;;;;0.40;0.40;;;15.80;96.90;;;;;;5074116;28;20202;-64
2022/11/16 12:05:43;;;;;;;0.40;0.40;;;15.80;97.10;;;;;;5072628;28;20200;-64
2022/11/16 12:08:49;;;;;;;0.40;0.40;;;15.80;97.20;;;;;;5073930;28;20227;-64
2022/11/16 12:11:51;;;;;;;0.40;0.40;;;15.90;97.20;;;;;;5070121;28;20264;-64
2022/11/16 12:15:02;;;;;;;0.40;0.40;;;15.90;97.10;;;;;;5075262;28;20257;-64
2022/11/16 12:17:57;;;;;;;0.40;0.40;;;15.90;97.10;;;;;;5077272;28;20283;-63
2022/11/16 12:20:53;;;;;;;0.57;0.57;;;15.90;97.00;;;;;;5075394;28;20300;-64
2022/11/16 12:24:07;;;;;;;0.40;0.40;;;15.90;97.00;;;;;;5074591;28;20204;-64
2022/11/16 12:27:09;;;;;;;0.40;0.40;;;15.90;97.00;;;;;;5076334;28;20224;-64
2022/11/16 12:30:03;;;;;;;0.40;0.40;;;15.80;97.00;;;;;;5076638;28;20255;-64
2022/11/16 12:33:04;;;;;;;0.50;0.50;;;15.80;97.00;;;;;;5076778;28;20303;-64
2022/11/16 12:36:01;;;;;;;0.40;0.40;;;15.80;97.00;;;;;;5075846;28;20238;-63
2022/11/16 12:39:03;;;;;;;0.40;0.40;;;15.80;97.00;;;;;;5075610;28;20411;-64
2022/11/16 12:42:31;;;;;;;0.40;0.40;;;15.80;97.00;;;;;;5075422;28;20246;-64
2022/11/16 12:45:40;;;;;;;0.40;0.40;;;15.80;97.00;;;;;;5075963;28;20282;-63
2022/11/16 12:48:58;;;;;;;0.40;0.40;;;15.80;97.00;;;;;;5076279;28;20284;-65
2022/11/16 12:51:58;;;;;;;0.40;0.40;;;15.80;96.90;;;;;;5075690;28;20303;-64
2022/11/16 12:55:04;;;;;;;0.40;0.40;;;15.70;96.90;;;;;;5074836;28;20203;-65
2022/11/16 12:58:22;;;;;;;0.40;0.40;;;15.70;96.90;;;;;;5075454;28;20211;-64
2022/11/16 13:01:15;;;;;;;0.40;0.40;;;15.70;96.90;;;;;;5074762;28;20213;-64
2022/11/16 13:04:10;;;;;;;0.40;0.40;;;15.70;96.90;;;;;;5073963;28;20196;-64
2022/11/16 13:07:04;;;;;;;0.40;0.40;;;15.70;97.00;;;;;;5076349;28;20228;-65
2022/11/16 13:10:05;;;;;;;0.40;0.40;;;15.60;96.80;;;;;;5075951;28;20220;-64
2022/11/16 13:12:58;;;;;;;0.40;0.40;;;15.60;96.90;;;;;;5073097;28;20252;-64
2022/11/16 13:16:09;;;;;;;0.40;0.40;;;15.60;96.90;;;;;;5075366;28;20201;-64
2022/11/16 13:18:59;;;;;;;0.40;0.40;;;15.60;96.80;;;;;;5074966;28;20693;-64
2022/11/16 13:21:54;;;;;;;0.40;0.40;;;15.60;96.90;;;;;;5075294;28;20747;-64
2022/11/16 13:24:52;;;;;;;0.40;0.40;;;15.60;97.00;;;;;;5074022;28;20326;-64
2022/11/16 13:27:46;;;;;;;0.40;0.40;;;15.60;97.00;;;;;;5075175;28;20196;-63
2022/11/16 13:30:45;;;;;;;0.40;0.40;;;15.60;97.00;;;;;;5073170;28;20291;-64
2022/11/16 13:33:46;;;;;;;0.40;0.40;;;15.60;97.00;;;;;;5074645;28;20307;-64
2022/11/16 13:36:42;;;;;;;0.40;0.40;;;15.60;97.00;;;;;;5074302;28;20258;-64
2022/11/16 13:40:13;;;;;;;0.40;0.40;;;15.60;96.70;;;;;;5074009;28;20206;-64
2022/11/16 13:43:05;;;;;;;0.50;0.50;;;15.60;97.00;;;;;;5073155;28;20196;-64
2022/11/16 13:45:57;;;;;;;1.35;1.25;;;15.60;97.00;;;;;;5074366;28;20275;-64
2022/11/16 13:48:47;;;;;;;0.40;0.40;;;15.60;97.00;;;;;;5072875;28;20756;-64
2022/11/16 13:51:35;;;;;;;0.40;0.40;;;15.60;96.80;;;;;;5072730;28;20743;-64
2022/11/16 13:54:28;;;;;;;1.48;1.48;;;15.60;96.90;;;;;;5072919;28;20326;-64
2022/11/16 13:57:34;;;;;;;0.40;0.40;;;15.70;96.90;;;;;;5072186;28;20283;-64
2022/11/16 14:00:28;;;;;;;0.40;0.40;;;15.70;96.90;;;;;;5073211;28;20229;-64
2022/11/16 14:03:37;;;;;;;0.85;0.85;;;15.70;96.90;;;;;;5073158;28;20283;-65
2022/11/16 14:06:58;;;;;;;0.40;0.40;;;15.70;96.90;;;;;;5072052;28;20574;-64
2022/11/16 14:09:48;;;;;;;0.40;0.40;;;15.70;96.60;;;;;;5071936;28;20205;-65
2022/11/16 14:12:57;;;;;;;0.40;0.40;;;15.70;96.90;;;;;;5073193;28;20216;-64
2022/11/16 14:16:06;;;;;;;0.40;0.40;;;15.70;96.80;;;;;;5074084;28;20202;-65
2022/11/16 14:18:56;;;;;;;0.40;0.40;;;15.70;96.70;;;;;;5073252;28;20280;-64
2022/11/16 14:21:49;;;;;;;0.40;0.40;;;15.60;96.80;;;;;;5073179;28;20216;-65
2022/11/16 14:24:43;;;;;;;3.40;2.67;;;15.60;96.80;;;;;;5075534;28;20675;-64
2022/11/16 14:27:40;;;;;;;0.40;0.40;;;15.70;96.80;;;;;;5074010;28;20258;-64
2022/11/16 14:30:32;;;;;;;0.50;0.50;;;15.60;96.80;;;;;;5073719;28;20213;-64
2022/11/16 14:33:28;;;;;;;0.40;0.40;;;15.60;96.80;;;;;;5073057;28;20217;-63
2022/11/16 14:36:33;;;;;;;0.40;0.40;;;15.60;96.80;;;;;;5072965;28;20247;-64
2022/11/16 14:39:36;;;;;;;0.40;0.40;;;15.70;97.00;;;;;;5072328;28;20238;-64
2022/11/16 14:42:28;;;;;;;0.40;0.40;;;15.60;96.90;;;;;;5071023;28;20196;-64
2022/11/16 14:45:24;;;;;;;0.40;0.40;;;15.60;96.80;;;;;;5073046;28;20601;-64
2022/11/16 14:48:16;;;;;;;0.50;0.50;;;15.60;96.80;;;;;;5072381;28;20196;-64
2022/11/16 14:51:08;;;;;;;0.40;0.40;;;15.50;96.70;;;;;;5072587;28;20302;-64
2022/11/16 14:54:01;;;;;;;0.40;0.40;;;15.50;97.10;;;;;;5072002;28;20217;-64
2022/11/16 14:56:57;;;;;;;0.40;0.40;;;15.50;96.90;;;;;;5072183;28;20812;-64
2022/11/16 14:59:45;;;;;;;4.68;2.35;;;15.50;96.70;;;;;;5072410;28;20287;-63
2022/11/16 15:02:34;;;;;;;0.40;0.40;;;15.40;96.80;;;;;;5073060;28;20300;-63
2022/11/16 15:05:27;;;;;;;0.40;0.40;;;15.50;96.80;;;;;;5071454;28;20220;-64
2022/11/16 15:08:20;;;;;;;0.40;0.40;;;15.50;97.00;;;;;;5072358;28;20242;-64
2022/11/16 15:11:20;;;;;;;0.40;0.40;;;15.50;96.80;;;;;;5072360;28;20296;-63
2022/11/16 15:14:09;;;;;;;0.50;0.50;;;15.60;97.00;;;;;;5072362;28;20682;-64
2022/11/16 15:16:59;;;;;;;0.40;0.40;;;15.50;96.90;;;;;;5071945;28;20236;-64
2022/11/16 15:19:54;;;;;;;0.40;0.40;;;15.60;96.70;;;;;;5071831;28;20603;-64
2022/11/16 15:22:45;;;;;;;0.40;0.40;;;15.60;96.90;;;;;;5072109;28;20731;-63
2022/11/16 15:25:36;;;;;;;0.40;0.40;;;15.60;96.90;;;;;;5073263;28;20246;-64
2022/11/16 15:28:27;;;;;;;0.75;0.75;;;15.60;96.80;;;;;;5071901;28;20679;-64
2022/11/16 15:31:16;;;;;;;0.40;0.40;;;15.60;96.90;;;;;;5072702;28;20702;-64
2022/11/16 15:34:04;;;;;;;0.40;0.40;;;15.60;96.90;;;;;;5071758;28;20629;-63
2022/11/16 15:36:53;;;;;;;0.40;0.40;;;15.50;96.80;;;;;;5071552;28;20279;-64
2022/11/16 15:39:42;;;;;;;0.40;0.40;;;15.60;96.60;;;;;;5071639;28;20200;-64
2022/11/16 15:42:30;;;;;;;0.40;0.40;;;15.60;96.80;;;;;;5073481;28;20276;-64